Time;durP1;ratioP1;P1;durP2;ratioP2;P2;SDS_P1;SDS_P2;PMS_P1;PMS_P2;Temp;Humidity;BMP_temperature;BMP_pressure;BME280_temperature;BME280_humidity;BME280_pressure;Samples;Min_cycle;Max_cycle;Signal;HPM_P1;HPM_P2
2024/03/14 00:03:33;;;;;;;22.10;18.70;;;10.20;99.90;;;;;;12513089;28;20049;-35
2024/03/14 00:09:35;;;;;;;21.83;19.52;;;10.20;99.90;;;;;;12499550;28;20052;-36
2024/03/14 00:15:37;;;;;;;20.88;18.67;;;10.20;99.90;;;;;;12505559;28;20053;-35
2024/03/14 00:21:39;;;;;;;21.25;19.00;;;10.20;99.90;;;;;;12507336;28;20057;-35
2024/03/14 00:27:44;;;;;;;20.23;18.17;;;10.10;99.90;;;;;;12494232;28;20041;-36
2024/03/14 00:33:46;;;;;;;19.13;17.35;;;10.10;99.90;;;;;;12520770;28;20064;-36
2024/03/14 00:39:48;;;;;;;19.40;17.50;;;10.10;99.90;;;;;;12501557;28;20049;-35
2024/03/14 00:45:49;;;;;;;19.70;17.67;;;10.20;99.90;;;;;;12474820;28;20053;-35
2024/03/14 00:51:51;;;;;;;19.02;17.05;;;10.20;99.90;;;;;;12464250;28;20057;-36
2024/03/14 00:57:53;;;;;;;18.35;16.55;;;10.20;99.90;;;;;;12526133;22;20051;-81
2024/03/14 01:03:56;;;;;;;18.33;16.50;;;10.30;99.90;;;;;;12598950;28;20499;-81
2024/03/14 01:09:58;;;;;;;18.10;16.42;;;10.20;99.90;;;;;;12585536;28;20220;-82
2024/03/14 01:16:00;;;;;;;18.60;16.92;;;10.20;99.90;;;;;;12542555;28;20497;-80
2024/03/14 01:22:03;;;;;;;17.80;16.10;;;10.30;99.90;;;;;;12564905;28;20048;-79
2024/03/14 01:28:07;;;;;;;18.17;16.60;;;10.30;99.90;;;;;;12582673;28;20131;-80
2024/03/14 01:34:09;;;;;;;17.38;15.82;;;10.20;99.90;;;;;;12586807;28;20048;-80
2024/03/14 01:40:14;;;;;;;17.52;15.93;;;10.20;99.90;;;;;;12582442;28;20052;-79
2024/03/14 01:46:17;;;;;;;18.40;15.18;;;10.20;99.90;;;;;;12550871;28;20044;-79
2024/03/14 01:52:19;;;;;;;18.83;16.95;;;10.20;99.90;;;;;;12577875;28;20072;-78
2024/03/14 01:58:25;;;;;;;17.63;15.68;;;10.20;99.90;;;;;;12568807;28;20053;-83
2024/03/14 02:04:52;;;;;;;16.13;14.52;;;10.10;99.90;;;;;;12562107;28;20044;-82
2024/03/14 02:10:54;;;;;;;17.48;15.73;;;10.20;99.90;;;;;;12561975;28;20408;-82
2024/03/14 02:16:57;;;;;;;16.35;14.68;;;10.20;99.90;;;;;;12554656;28;20186;-79
2024/03/14 02:22:58;;;;;;;18.38;16.40;;;10.20;99.90;;;;;;12582407;28;20538;-80
2024/03/14 02:29:00;;;;;;;17.60;15.82;;;10.20;99.90;;;;;;12591871;28;20070;-80
2024/03/14 02:35:04;;;;;;;18.30;16.27;;;10.20;99.90;;;;;;12589666;28;20044;-80
2024/03/14 02:41:06;;;;;;;17.58;15.98;;;10.20;99.90;;;;;;12582697;28;20136;-80
2024/03/14 02:47:08;;;;;;;16.77;14.93;;;10.10;99.90;;;;;;12601677;28;20056;-79
2024/03/14 02:53:13;;;;;;;16.73;15.02;;;10.00;99.90;;;;;;12606841;28;20045;-80
2024/03/14 02:59:15;;;;;;;18.10;15.40;;;10.10;99.90;;;;;;12589326;28;20068;-80
2024/03/14 03:05:17;;;;;;;16.25;14.55;;;10.00;99.90;;;;;;12593706;28;20049;-80
2024/03/14 03:11:19;;;;;;;15.98;14.38;;;10.00;99.90;;;;;;12575336;28;20071;-82
2024/03/14 03:17:21;;;;;;;17.70;15.80;;;10.00;99.90;;;;;;12568761;28;20444;-82
2024/03/14 03:23:24;;;;;;;15.93;14.23;;;10.00;99.90;;;;;;12577399;28;20516;-82
2024/03/14 03:29:26;;;;;;;16.83;14.75;;;9.90;99.90;;;;;;12566218;28;20504;-83
2024/03/14 03:35:28;;;;;;;16.50;14.77;;;10.00;99.90;;;;;;12592619;28;20103;-82
2024/03/14 03:41:30;;;;;;;16.05;14.35;;;9.90;99.90;;;;;;12562320;28;20057;-83
2024/03/14 03:47:32;;;;;;;16.25;14.52;;;10.00;99.90;;;;;;12570792;28;20040;-83
2024/03/14 03:53:34;;;;;;;15.15;13.57;;;9.90;99.90;;;;;;12582661;28;20053;-83
2024/03/14 03:59:36;;;;;;;17.50;13.95;;;9.90;99.90;;;;;;12573174;28;20075;-83
2024/03/14 04:05:39;;;;;;;16.20;14.13;;;9.90;99.90;;;;;;12558025;28;20044;-83
2024/03/14 04:11:42;;;;;;;15.95;13.93;;;9.90;99.90;;;;;;12586882;28;20131;-82
2024/03/14 04:17:44;;;;;;;16.67;14.80;;;10.00;99.90;;;;;;12572634;28;20068;-82
2024/03/14 04:23:46;;;;;;;19.23;15.68;;;10.00;99.90;;;;;;12584314;28;20102;-80
2024/03/14 04:29:48;;;;;;;19.48;14.73;;;10.00;99.90;;;;;;12605166;28;20044;-80
2024/03/14 04:35:52;;;;;;;16.95;15.15;;;10.00;99.90;;;;;;12585415;28;20052;-80
2024/03/14 04:41:55;;;;;;;18.40;15.77;;;9.90;99.90;;;;;;12558848;28;20133;-81
2024/03/14 04:47:57;;;;;;;15.82;13.63;;;10.00;99.90;;;;;;12566873;28;20109;-80
2024/03/14 04:53:59;;;;;;;21.17;15.63;;;10.00;99.90;;;;;;12569066;28;20083;-81
2024/03/14 05:00:10;;;;;;;18.92;15.18;;;10.00;99.90;;;;;;12567102;28;20049;-81
2024/03/14 05:06:13;;;;;;;20.25;15.77;;;10.00;99.90;;;;;;12576637;28;20041;-81
2024/03/14 05:12:15;;;;;;;19.85;15.80;;;10.00;99.90;;;;;;12565513;28;20044;-81
2024/03/14 05:18:17;;;;;;;19.15;15.55;;;10.00;99.90;;;;;;12564044;28;20056;-81
2024/03/14 05:24:19;;;;;;;18.25;15.32;;;10.00;99.90;;;;;;12573331;28;20052;-82
2024/03/14 05:30:23;;;;;;;17.48;15.43;;;10.00;99.90;;;;;;12596044;28;20079;-80
2024/03/14 05:36:26;;;;;;;18.45;15.25;;;10.00;99.90;;;;;;12614250;28;20045;-80
2024/03/14 05:42:28;;;;;;;19.00;15.63;;;10.00;99.90;;;;;;12581612;28;20075;-80
2024/03/14 05:48:30;;;;;;;19.08;15.63;;;10.00;99.90;;;;;;12613704;28;20172;-80
2024/03/14 05:54:32;;;;;;;19.25;15.35;;;10.00;99.90;;;;;;12599561;28;20068;-80
2024/03/14 06:00:34;;;;;;;18.80;15.10;;;10.00;99.90;;;;;;12596437;28;20116;-80
2024/03/14 06:06:36;;;;;;;17.52;15.68;;;10.00;99.90;;;;;;12597338;28;20062;-80
2024/03/14 06:12:39;;;;;;;17.83;15.98;;;10.10;99.90;;;;;;12605007;28;20045;-80
2024/03/14 06:18:41;;;;;;;17.60;15.77;;;10.10;99.90;;;;;;12623987;28;20049;-80
2024/03/14 06:24:46;;;;;;;18.45;16.10;;;10.20;99.90;;;;;;12598542;28;20068;-80
2024/03/14 06:30:49;;;;;;;18.23;16.45;;;10.20;99.90;;;;;;12603012;28;20052;-80
2024/03/14 06:36:51;;;;;;;18.00;16.30;;;10.20;99.90;;;;;;12623412;28;20049;-80
2024/03/14 06:42:53;;;;;;;20.05;17.95;;;10.20;99.90;;;;;;12581210;28;20076;-78
2024/03/14 06:48:56;;;;;;;18.40;16.60;;;10.30;99.90;;;;;;12574948;28;20044;-79
2024/03/14 06:54:58;;;;;;;19.33;17.33;;;10.40;99.90;;;;;;12594504;28;20041;-79
2024/03/14 07:01:00;;;;;;;19.85;17.92;;;10.50;99.90;;;;;;12588096;28;20079;-80
2024/03/14 07:07:02;;;;;;;19.95;17.85;;;10.60;99.90;;;;;;12603572;28;20079;-80
2024/03/14 07:13:03;;;;;;;22.02;19.83;;;10.70;99.90;;;;;;12615750;28;20041;-79
2024/03/14 07:19:06;;;;;;;20.05;18.15;;;10.60;99.90;;;;;;12589176;28;20053;-79
2024/03/14 07:25:09;;;;;;;20.52;18.73;;;10.60;99.90;;;;;;12602858;28;20053;-79
2024/03/14 07:31:13;;;;;;;19.95;18.05;;;10.70;99.90;;;;;;12623745;28;20063;-80
2024/03/14 07:37:15;;;;;;;20.35;18.45;;;10.70;99.90;;;;;;12621399;28;20067;-79
2024/03/14 07:43:20;;;;;;;18.50;16.77;;;10.70;99.90;;;;;;12600478;28;20120;-80
2024/03/14 07:49:25;;;;;;;19.58;17.75;;;10.80;99.90;;;;;;12591439;28;20052;-78
2024/03/14 07:55:27;;;;;;;21.63;19.60;;;10.90;99.90;;;;;;12563108;28;20206;-80
2024/03/14 08:01:29;;;;;;;26.67;24.48;;;11.00;99.90;;;;;;12567612;28;20063;-81
2024/03/14 08:07:31;;;;;;;27.05;25.00;;;11.20;99.90;;;;;;12570910;28;20582;-80
2024/03/14 08:13:33;;;;;;;34.28;31.88;;;11.70;99.90;;;;;;12588414;28;20048;-81
2024/03/14 08:19:35;;;;;;;38.20;35.60;;;12.30;99.90;;;;;;12576847;28;20044;-79
2024/03/14 08:25:37;;;;;;;35.17;32.88;;;12.40;99.90;;;;;;12568447;28;20045;-78
2024/03/14 08:31:41;;;;;;;38.83;36.03;;;12.40;99.90;;;;;;12569275;28;20087;-81
2024/03/14 08:37:44;;;;;;;47.30;44.13;;;12.70;99.90;;;;;;12566674;28;20390;-82
2024/03/14 08:43:46;;;;;;;44.58;41.65;;;13.10;99.90;;;;;;12587986;28;20056;-83
2024/03/14 08:49:48;;;;;;;41.55;38.95;;;13.20;99.90;;;;;;12563531;28;20488;-83
2024/03/14 08:55:54;;;;;;;43.03;40.42;;;13.50;99.90;;;;;;12567593;28;20059;-81
2024/03/14 09:01:57;;;;;;;33.40;31.23;;;13.20;99.90;;;;;;12550675;28;20044;-81
2024/03/14 09:07:59;;;;;;;32.83;30.48;;;13.00;99.90;;;;;;12581904;28;20044;-80
2024/03/14 09:14:05;;;;;;;33.35;31.13;;;13.00;99.90;;;;;;12586616;28;20066;-81
2024/03/14 09:20:14;;;;;;;29.92;28.00;;;13.50;99.90;;;;;;12580447;28;20087;-81
2024/03/14 09:26:16;;;;;;;38.90;36.42;;;13.90;99.90;;;;;;12565124;28;20052;-81
2024/03/14 09:32:18;;;;;;;34.25;32.05;;;13.80;99.90;;;;;;12566720;28;20055;-80
2024/03/14 09:38:20;;;;;;;36.95;34.40;;;13.90;99.90;;;;;;12587766;28;20062;-79
2024/03/14 09:44:23;;;;;;;35.47;33.28;;;13.70;99.90;;;;;;12586991;28;20056;-77
2024/03/14 09:50:26;;;;;;;33.95;31.58;;;13.40;99.90;;;;;;12579959;28;20064;-77
2024/03/14 09:56:29;;;;;;;31.45;29.25;;;13.30;99.90;;;;;;12601976;28;20056;-78
2024/03/14 10:02:31;;;;;;;32.03;29.98;;;13.40;99.90;;;;;;12582303;28;20067;-78
2024/03/14 10:08:44;;;;;;;29.88;27.67;;;13.40;99.90;;;;;;12583488;28;20071;-77
2024/03/14 10:15:00;;;;;;;35.47;33.17;;;13.70;99.90;;;;;;12612131;28;20049;-79
2024/03/14 10:21:05;;;;;;;33.67;31.30;;;14.30;99.90;;;;;;12601380;28;20044;-79
2024/03/14 10:27:07;;;;;;;32.17;30.05;;;14.40;99.90;;;;;;12590097;28;20125;-78
2024/03/14 10:33:10;;;;;;;32.03;29.95;;;14.20;99.90;;;;;;12612841;28;20045;-78
2024/03/14 10:39:14;;;;;;;33.60;31.60;;;14.50;99.90;;;;;;12610620;28;20044;-80
2024/03/14 10:45:17;;;;;;;35.10;32.50;;;14.50;99.90;;;;;;12632538;28;20581;-80
2024/03/14 10:51:19;;;;;;;33.70;31.55;;;14.90;99.90;;;;;;12616451;28;20488;-80
2024/03/14 10:57:24;;;;;;;33.60;31.48;;;14.70;99.90;;;;;;12564348;28;20091;-82
2024/03/14 11:03:27;;;;;;;32.20;30.10;;;14.70;92.50;;;;;;12571821;28;20044;-81
2024/03/14 11:09:32;;;;;;;28.00;26.20;;;14.80;99.90;;;;;;12573313;28;20078;-81
2024/03/14 11:15:36;;;;;;;28.23;26.33;;;15.10;73.00;;;;;;12568001;28;20056;-81
2024/03/14 11:21:38;;;;;;;31.13;29.05;;;15.40;1.00;;;;;;12574858;28;20050;-78
2024/03/14 11:27:42;;;;;;;33.20;31.00;;;15.50;5.10;;;;;;12575656;28;20052;-78
2024/03/14 11:33:45;;;;;;;31.38;29.35;;;15.70;37.30;;;;;;12577764;28;20048;-78
2024/03/14 11:39:48;;;;;;;33.63;31.33;;;15.70;21.50;;;;;;12580722;28;20055;-78
2024/03/14 11:46:01;;;;;;;28.55;26.75;;;15.50;97.90;;;;;;12574830;28;20076;-78
2024/03/14 11:52:03;;;;;;;27.20;25.40;;;15.40;9.50;;;;;;12573338;28;20070;-79
2024/03/14 11:58:15;;;;;;;27.20;25.40;;;15.50;11.70;;;;;;12598035;28;20420;-79
2024/03/14 12:04:19;;;;;;;24.35;22.65;;;15.50;27.80;;;;;;12587961;28;20059;-78
2024/03/14 12:10:24;;;;;;;25.40;23.70;;;15.80;1.00;;;;;;12576946;28;20068;-78
2024/03/14 12:16:26;;;;;;;25.27;23.58;;;16.20;1.00;;;;;;12579368;28;20056;-78
2024/03/14 12:22:28;;;;;;;28.33;26.50;;;15.90;99.90;;;;;;12568975;28;20063;-77
2024/03/14 12:28:32;;;;;;;22.38;20.77;;;15.30;99.90;;;;;;12579016;28;20040;-78
2024/03/14 12:34:35;;;;;;;18.45;17.25;;;15.50;99.90;;;;;;12575688;28;20055;-77
2024/03/14 12:40:37;;;;;;;19.13;17.73;;;15.80;99.90;;;;;;12573259;28;20442;-77
2024/03/14 12:46:39;;;;;;;18.52;17.13;;;16.10;99.90;;;;;;12562724;28;20123;-77
2024/03/14 12:52:43;;;;;;;18.10;16.80;;;16.40;99.90;;;;;;12593699;28;20417;-77
2024/03/14 12:58:53;;;;;;;14.50;13.40;;;16.40;99.90;;;;;;12613582;28;20056;-78
2024/03/14 13:04:55;;;;;;;14.55;13.25;;;16.80;99.90;;;;;;12620061;28;20049;-78
2024/03/14 13:11:15;;;;;;;12.43;11.40;;;16.90;99.90;;;;;;12602486;28;20052;-78
2024/03/14 13:17:17;;;;;;;12.20;11.20;;;16.90;99.90;;;;;;12592582;28;20048;-78
2024/03/14 13:23:20;;;;;;;13.50;12.50;;;16.70;99.90;;;;;;12606808;28;20040;-79
2024/03/14 13:29:22;;;;;;;12.27;11.38;;;16.90;99.90;;;;;;12597639;28;20070;-79
2024/03/14 13:35:26;;;;;;;12.23;11.30;;;16.80;99.90;;;;;;12571460;28;20041;-78
2024/03/14 13:41:30;;;;;;;12.00;11.10;;;16.80;99.90;;;;;;12569846;28;20124;-78
2024/03/14 13:47:32;;;;;;;9.73;8.82;;;16.90;99.90;;;;;;12571195;28;20036;-77
2024/03/14 13:53:39;;;;;;;13.45;12.55;;;16.60;99.90;;;;;;12591247;28;20053;-77
2024/03/14 13:59:46;;;;;;;13.98;12.98;;;16.40;99.90;;;;;;12567249;28;20131;-78
2024/03/14 14:05:52;;;;;;;13.20;12.20;;;16.30;99.90;;;;;;12572089;28;20082;-78
2024/03/14 14:11:54;;;;;;;14.07;12.98;;;16.30;99.90;;;;;;12602490;28;20060;-78
2024/03/14 14:17:56;;;;;;;12.00;11.10;;;16.20;99.90;;;;;;12588029;28;20052;-78
2024/03/14 14:23:58;;;;;;;11.50;10.70;;;16.50;99.90;;;;;;12577769;28;20071;-78
2024/03/14 14:30:00;;;;;;;9.50;8.73;;;16.70;99.90;;;;;;12595706;28;20128;-79
2024/03/14 14:36:02;;;;;;;7.13;6.53;;;16.80;99.90;;;;;;12601442;28;20053;-78
2024/03/14 14:42:05;;;;;;;8.57;7.88;;;16.50;99.90;;;;;;12623257;28;20055;-78
2024/03/14 14:48:09;;;;;;;8.50;7.80;;;16.60;99.90;;;;;;12603633;28;20055;-81
2024/03/14 14:54:13;;;;;;;7.85;7.25;;;16.50;99.90;;;;;;12584631;28;20040;-80
2024/03/14 15:00:16;;;;;;;7.60;6.90;;;16.70;99.90;;;;;;12580291;28;20139;-81
2024/03/14 15:06:18;;;;;;;7.32;6.63;;;16.70;99.90;;;;;;12580406;28;20044;-80
2024/03/14 15:12:20;;;;;;;7.00;6.40;;;16.70;99.90;;;;;;12598533;28;20663;-80
2024/03/14 15:18:22;;;;;;;7.18;6.57;;;16.80;99.90;;;;;;12593364;28;20056;-80
2024/03/14 15:24:25;;;;;;;7.05;6.45;;;16.90;99.90;;;;;;12588336;28;20053;-81
2024/03/14 15:30:31;;;;;;;5.95;5.35;;;16.80;99.90;;;;;;12573057;28;20051;-80
2024/03/14 15:36:35;;;;;;;6.45;5.20;;;16.90;99.90;;;;;;12585067;28;20056;-81
2024/03/14 15:42:37;;;;;;;6.07;4.90;;;16.90;99.90;;;;;;12573488;28;20053;-80
2024/03/14 15:48:39;;;;;;;6.70;4.75;;;17.00;99.90;;;;;;12588357;28;20416;-81
2024/03/14 15:54:41;;;;;;;6.10;5.60;;;16.90;99.90;;;;;;12589743;28;20056;-80
2024/03/14 16:00:44;;;;;;;6.40;5.10;;;16.90;99.90;;;;;;12559190;28;20065;-81
2024/03/14 16:06:47;;;;;;;4.68;4.00;;;16.60;99.90;;;;;;12583513;28;20140;-80
2024/03/14 16:12:51;;;;;;;3.78;3.13;;;16.60;99.90;;;;;;12560288;28;20067;-80
2024/03/14 16:18:54;;;;;;;7.43;5.85;;;16.50;99.90;;;;;;12586016;28;20049;-79
2024/03/14 16:24:57;;;;;;;10.70;9.90;;;16.20;99.90;;;;;;12560553;28;20135;-80
2024/03/14 16:31:05;;;;;;;12.55;11.63;;;15.90;99.90;;;;;;12586887;28;20079;-79
2024/03/14 16:37:07;;;;;;;14.30;13.15;;;15.60;99.90;;;;;;12565487;28;20530;-80
2024/03/14 16:43:10;;;;;;;13.82;12.82;;;15.20;99.90;;;;;;12588290;28;20068;-79
2024/03/14 16:49:12;;;;;;;13.57;12.57;;;15.10;99.90;;;;;;12565822;28;20083;-80
2024/03/14 16:55:15;;;;;;;13.27;12.18;;;14.90;99.90;;;;;;12563535;28;20663;-80
2024/03/14 17:01:17;;;;;;;13.20;12.20;;;14.70;99.90;;;;;;12586080;28;20548;-80
2024/03/14 17:07:19;;;;;;;13.38;12.48;;;14.50;99.90;;;;;;12585682;28;20044;-80
2024/03/14 17:13:21;;;;;;;12.35;11.18;;;14.50;99.90;;;;;;12585430;28;20052;-80
2024/03/14 17:19:24;;;;;;;10.85;9.75;;;14.40;99.90;;;;;;12584183;28;20132;-80
2024/03/14 17:25:26;;;;;;;11.40;10.25;;;14.30;99.90;;;;;;12586700;28;20053;-81
2024/03/14 17:31:28;;;;;;;10.07;9.18;;;14.30;99.90;;;;;;12567622;28;20101;-79
2024/03/14 17:37:31;;;;;;;10.55;9.45;;;14.10;99.90;;;;;;12572763;28;20573;-80
2024/03/14 17:43:33;;;;;;;9.38;8.55;;;14.00;99.90;;;;;;12585463;28;20135;-80
2024/03/14 17:49:37;;;;;;;9.55;8.63;;;13.90;99.90;;;;;;12563572;28;20048;-79
2024/03/14 17:55:39;;;;;;;9.20;8.43;;;13.80;99.90;;;;;;12564967;28;20041;-79
2024/03/14 18:01:42;;;;;;;9.10;8.20;;;13.80;99.90;;;;;;12573304;28;20056;-80
2024/03/14 18:07:45;;;;;;;9.75;7.88;;;13.70;99.90;;;;;;12577796;28;20127;-80
2024/03/14 18:13:47;;;;;;;8.83;8.03;;;13.80;99.90;;;;;;12574366;28;20053;-80
2024/03/14 18:19:49;;;;;;;8.75;7.95;;;13.70;99.90;;;;;;12572745;28;20282;-79
2024/03/14 18:25:55;;;;;;;8.23;7.47;;;13.70;99.90;;;;;;12594194;28;20139;-80
2024/03/14 18:31:57;;;;;;;11.60;8.15;;;13.60;99.90;;;;;;12572748;28;20079;-80
2024/03/14 18:37:59;;;;;;;10.05;8.23;;;13.50;99.90;;;;;;12572758;28;20044;-80
2024/03/14 18:44:01;;;;;;;9.15;8.25;;;13.40;99.90;;;;;;12590800;28;20052;-80
2024/03/14 18:50:03;;;;;;;8.85;7.95;;;13.40;99.90;;;;;;12581823;28;20440;-79
2024/03/14 18:56:05;;;;;;;10.13;8.38;;;13.40;99.90;;;;;;12589224;28;20123;-78
2024/03/14 19:02:10;;;;;;;9.38;8.43;;;13.40;99.90;;;;;;12590208;28;20530;-79
2024/03/14 19:08:12;;;;;;;9.15;8.10;;;13.30;99.90;;;;;;12605772;28;20048;-78
2024/03/14 19:14:14;;;;;;;9.23;8.32;;;13.30;99.90;;;;;;12576713;28;20073;-78
2024/03/14 19:20:18;;;;;;;9.70;8.68;;;13.30;99.90;;;;;;12581157;28;20504;-78
2024/03/14 19:26:22;;;;;;;8.77;7.95;;;13.20;99.90;;;;;;12571652;28;20424;-78
2024/03/14 19:32:24;;;;;;;10.35;8.15;;;13.20;99.90;;;;;;12581854;28;20079;-78
2024/03/14 19:38:26;;;;;;;9.20;8.30;;;13.10;99.90;;;;;;12596065;28;20044;-78
2024/03/14 19:44:29;;;;;;;9.32;8.00;;;12.90;99.90;;;;;;12584937;28;20584;-78
2024/03/14 19:50:31;;;;;;;10.10;8.32;;;12.80;99.90;;;;;;12596979;28;20408;-78
2024/03/14 19:56:37;;;;;;;8.63;7.70;;;12.80;99.90;;;;;;12581161;28;20059;-77
2024/03/14 20:02:40;;;;;;;9.68;8.40;;;12.70;99.90;;;;;;12598913;28;20063;-78
2024/03/14 20:08:43;;;;;;;9.05;8.15;;;12.70;99.90;;;;;;12574047;28;20059;-79
2024/03/14 20:14:45;;;;;;;9.10;7.97;;;12.60;99.90;;;;;;12594378;28;20049;-78
2024/03/14 20:20:47;;;;;;;8.90;7.78;;;12.40;99.90;;;;;;12575824;28;20048;-79
2024/03/14 20:26:49;;;;;;;10.65;8.05;;;12.30;99.90;;;;;;12582137;28;20048;-79
2024/03/14 20:32:53;;;;;;;12.00;7.90;;;12.30;99.90;;;;;;12599046;28;20053;-79
2024/03/14 20:38:56;;;;;;;9.63;7.82;;;12.20;99.90;;;;;;12573118;28;20515;-78
2024/03/14 20:45:07;;;;;;;8.90;7.70;;;12.20;99.90;;;;;;12581502;28;20041;-79
2024/03/14 20:51:10;;;;;;;11.15;7.88;;;12.40;99.90;;;;;;12578036;28;20614;-79
2024/03/14 20:57:14;;;;;;;9.65;7.32;;;12.50;99.90;;;;;;12596400;28;20056;-79
2024/03/14 21:03:17;;;;;;;10.52;7.28;;;12.60;99.90;;;;;;12577019;28;20064;-78
2024/03/14 21:09:24;;;;;;;8.40;7.47;;;12.60;99.90;;;;;;12571182;28;20040;-78
2024/03/14 21:15:26;;;;;;;10.48;8.18;;;12.50;99.90;;;;;;12567124;28;20052;-77
2024/03/14 21:21:30;;;;;;;11.23;7.40;;;12.40;99.90;;;;;;12591355;28;20079;-78
2024/03/14 21:27:32;;;;;;;9.57;7.80;;;12.40;99.90;;;;;;12570811;28;20444;-77
2024/03/14 21:33:34;;;;;;;9.98;7.72;;;12.30;99.90;;;;;;12581213;28;20840;-77
2024/03/14 21:39:43;;;;;;;9.63;8.02;;;12.30;99.90;;;;;;12575586;28;20048;-77
2024/03/14 21:45:49;;;;;;;10.38;7.60;;;12.20;99.90;;;;;;12573677;28;20045;-78
2024/03/14 21:51:51;;;;;;;9.15;7.72;;;12.20;99.90;;;;;;12564004;28;20546;-77
2024/03/14 21:57:54;;;;;;;13.18;8.57;;;12.20;99.90;;;;;;12587781;28;20086;-78
2024/03/14 22:03:58;;;;;;;9.07;7.78;;;12.20;99.90;;;;;;12581777;28;20052;-79
2024/03/14 22:10:00;;;;;;;9.48;8.15;;;12.20;99.90;;;;;;12573178;28;20037;-77
2024/03/14 22:16:03;;;;;;;9.38;8.35;;;12.20;99.90;;;;;;12553036;28;20044;-77
2024/03/14 22:22:07;;;;;;;11.15;8.43;;;12.10;99.90;;;;;;12560219;28;20090;-80
2024/03/14 22:28:09;;;;;;;10.65;8.23;;;12.10;99.90;;;;;;12568175;28;20048;-80
2024/03/14 22:34:11;;;;;;;9.30;8.18;;;12.10;99.90;;;;;;12566534;28;20048;-79
2024/03/14 22:40:20;;;;;;;9.65;7.97;;;12.30;99.90;;;;;;12564572;28;20520;-79
2024/03/14 22:46:22;;;;;;;9.60;8.13;;;12.40;99.90;;;;;;12568041;28;20060;-79
2024/03/14 22:52:24;;;;;;;10.57;8.32;;;12.30;99.90;;;;;;12573042;28;20040;-80
2024/03/14 22:58:26;;;;;;;10.18;8.10;;;12.30;99.90;;;;;;12576838;28;20571;-80
2024/03/14 23:04:29;;;;;;;9.20;8.23;;;12.30;99.90;;;;;;12572812;28;20049;-80
2024/03/14 23:10:32;;;;;;;11.10;8.27;;;12.30;99.90;;;;;;12576523;28;20299;-79
2024/03/14 23:16:34;;;;;;;9.05;8.15;;;12.30;99.90;;;;;;12593297;28;20052;-80
2024/03/14 23:22:35;;;;;;;8.93;7.53;;;12.30;99.90;;;;;;12587073;28;20055;-80
2024/03/14 23:28:38;;;;;;;8.75;7.82;;;;;;;;;;12565774;28;20048;-81
2024/03/14 23:34:40;;;;;;;9.00;7.70;;;12.30;99.90;;;;;;12597995;28;20488;-80
2024/03/14 23:40:41;;;;;;;8.88;7.85;;;12.40;99.90;;;;;;12583514;28;20076;-80
2024/03/14 23:46:43;;;;;;;9.13;8.05;;;12.30;99.90;;;;;;12594179;28;20390;-80
2024/03/14 23:52:49;;;;;;;9.52;8.18;;;;;;;;;;12595837;28;20044;-79
2024/03/14 23:58:53;;;;;;;8.80;7.25;;;12.20;99.90;;;;;;12575807;28;20057;-80
